sensor_id;sensor_type;location;lat;lon;timestamp;temperature;humidity
4826;DHT22;2427;50.934;6.776;2023-04-15T00:00:15;5.90;1.00
4826;DHT22;2427;50.934;6.776;2023-04-15T00:02:41;5.80;1.00
4826;DHT22;2427;50.934;6.776;2023-04-15T00:05:07;5.90;1.00
4826;DHT22;2427;50.934;6.776;2023-04-15T00:07:32;5.90;1.00
4826;DHT22;2427;50.934;6.776;2023-04-15T00:09:58;5.90;1.00
4826;DHT22;2427;50.934;6.776;2023-04-15T00:12:24;5.90;1.00
4826;DHT22;2427;50.934;6.776;2023-04-15T00:14:50;5.80;1.00
4826;DHT22;2427;50.934;6.776;2023-04-15T00:17:16;5.80;1.00
4826;DHT22;2427;50.934;6.776;2023-04-15T00:19:42;5.90;1.00
4826;DHT22;2427;50.934;6.776;2023-04-15T00:22:09;5.80;1.00
4826;DHT22;2427;50.934;6.776;2023-04-15T00:24:34;5.80;1.00
4826;DHT22;2427;50.934;6.776;2023-04-15T00:27:00;5.80;1.00
4826;DHT22;2427;50.934;6.776;2023-04-15T00:29:25;5.80;1.00
4826;DHT22;2427;50.934;6.776;2023-04-15T00:31:51;5.80;32.00
4826;DHT22;2427;50.934;6.776;2023-04-15T00:34:17;5.70;5.10
4826;DHT22;2427;50.934;6.776;2023-04-15T00:36:43;5.60;1.00
4826;DHT22;2427;50.934;6.776;2023-04-15T00:39:09;5.60;1.00
4826;DHT22;2427;50.934;6.776;2023-04-15T00:41:34;5.60;1.00
4826;DHT22;2427;50.934;6.776;2023-04-15T00:44:04;5.60;1.00
4826;DHT22;2427;50.934;6.776;2023-04-15T00:46:30;5.60;1.00
4826;DHT22;2427;50.934;6.776;2023-04-15T00:48:55;5.50;1.00
4826;DHT22;2427;50.934;6.776;2023-04-15T00:51:21;5.60;1.00
4826;DHT22;2427;50.934;6.776;2023-04-15T00:53:47;5.50;54.30
4826;DHT22;2427;50.934;6.776;2023-04-15T00:56:13;5.50;99.90
4826;DHT22;2427;50.934;6.776;2023-04-15T00:58:39;5.50;99.90
4826;DHT22;2427;50.934;6.776;2023-04-15T01:11:26;5.40;69.00
4826;DHT22;2427;50.934;6.776;2023-04-15T01:13:52;5.40;77.60
4826;DHT22;2427;50.934;6.776;2023-04-15T01:16:19;5.30;35.60
4826;DHT22;2427;50.934;6.776;2023-04-15T01:18:45;5.30;26.50
4826;DHT22;2427;50.934;6.776;2023-04-15T01:21:11;5.30;24.10
4826;DHT22;2427;50.934;6.776;2023-04-15T01:23:37;5.20;4.50
4826;DHT22;2427;50.934;6.776;2023-04-15T01:26:04;5.10;21.10
4826;DHT22;2427;50.934;6.776;2023-04-15T01:28:30;5.10;65.90
4826;DHT22;2427;50.934;6.776;2023-04-15T01:31:11;5.10;99.90
4826;DHT22;2427;50.934;6.776;2023-04-15T01:33:38;5.10;99.90
4826;DHT22;2427;50.934;6.776;2023-04-15T01:36:05;5.10;99.90
4826;DHT22;2427;50.934;6.776;2023-04-15T01:38:33;5.00;99.90
4826;DHT22;2427;50.934;6.776;2023-04-15T01:40:58;5.00;99.90
4826;DHT22;2427;50.934;6.776;2023-04-15T01:43:25;4.90;99.90
4826;DHT22;2427;50.934;6.776;2023-04-15T01:45:51;4.90;99.90
4826;DHT22;2427;50.934;6.776;2023-04-15T01:48:16;4.80;99.90
4826;DHT22;2427;50.934;6.776;2023-04-15T01:50:43;4.80;99.90
4826;DHT22;2427;50.934;6.776;2023-04-15T01:53:09;4.80;99.90
4826;DHT22;2427;50.934;6.776;2023-04-15T01:55:35;4.80;99.90
4826;DHT22;2427;50.934;6.776;2023-04-15T01:58:01;4.70;99.90
4826;DHT22;2427;50.934;6.776;2023-04-15T02:00:27;4.70;99.90
4826;DHT22;2427;50.934;6.776;2023-04-15T02:02:53;4.80;99.90
4826;DHT22;2427;50.934;6.776;2023-04-15T02:05:18;4.70;99.90
4826;DHT22;2427;50.934;6.776;2023-04-15T02:07:44;4.70;99.90
4826;DHT22;2427;50.934;6.776;2023-04-15T02:10:10;4.70;99.90
4826;DHT22;2427;50.934;6.776;2023-04-15T02:12:38;4.60;99.90
4826;DHT22;2427;50.934;6.776;2023-04-15T02:15:04;4.60;99.90
4826;DHT22;2427;50.934;6.776;2023-04-15T02:17:33;4.60;99.90
4826;DHT22;2427;50.934;6.776;2023-04-15T02:19:59;4.60;99.90
4826;DHT22;2427;50.934;6.776;2023-04-15T02:22:25;4.50;99.90
4826;DHT22;2427;50.934;6.776;2023-04-15T02:24:50;4.50;1.00
4826;DHT22;2427;50.934;6.776;2023-04-15T02:27:17;4.50;1.00
4826;DHT22;2427;50.934;6.776;2023-04-15T02:29:45;4.50;1.00
4826;DHT22;2427;50.934;6.776;2023-04-15T02:32:12;4.50;1.00
4826;DHT22;2427;50.934;6.776;2023-04-15T02:34:40;4.40;1.00
4826;DHT22;2427;50.934;6.776;2023-04-15T02:37:10;4.40;1.00
4826;DHT22;2427;50.934;6.776;2023-04-15T02:39:37;4.40;1.00
4826;DHT22;2427;50.934;6.776;2023-04-15T02:42:03;4.40;1.00
4826;DHT22;2427;50.934;6.776;2023-04-15T02:44:30;4.30;1.00
4826;DHT22;2427;50.934;6.776;2023-04-15T02:46:57;4.30;1.00
4826;DHT22;2427;50.934;6.776;2023-04-15T02:49:23;4.30;1.00
4826;DHT22;2427;50.934;6.776;2023-04-15T02:51:48;4.30;1.00
4826;DHT22;2427;50.934;6.776;2023-04-15T02:54:19;4.30;1.00
4826;DHT22;2427;50.934;6.776;2023-04-15T02:56:45;4.30;1.00
4826;DHT22;2427;50.934;6.776;2023-04-15T02:59:11;4.30;1.00
4826;DHT22;2427;50.934;6.776;2023-04-15T03:01:37;4.30;1.00
4826;DHT22;2427;50.934;6.776;2023-04-15T03:04:03;4.30;1.00
4826;DHT22;2427;50.934;6.776;2023-04-15T03:06:28;4.30;1.00
4826;DHT22;2427;50.934;6.776;2023-04-15T03:08:54;4.20;1.00
4826;DHT22;2427;50.934;6.776;2023-04-15T03:11:21;4.20;1.00
4826;DHT22;2427;50.934;6.776;2023-04-15T03:13:47;4.20;1.00
4826;DHT22;2427;50.934;6.776;2023-04-15T03:16:13;4.20;1.00
4826;DHT22;2427;50.934;6.776;2023-04-15T03:18:38;4.20;1.00
4826;DHT22;2427;50.934;6.776;2023-04-15T03:21:04;4.20;1.00
4826;DHT22;2427;50.934;6.776;2023-04-15T03:23:30;4.20;1.00
4826;DHT22;2427;50.934;6.776;2023-04-15T03:25:56;4.10;16.60
4826;DHT22;2427;50.934;6.776;2023-04-15T03:28:23;4.10;65.80
4826;DHT22;2427;50.934;6.776;2023-04-15T03:30:48;4.20;99.90
4826;DHT22;2427;50.934;6.776;2023-04-15T03:33:14;4.10;93.00
4826;DHT22;2427;50.934;6.776;2023-04-15T03:35:40;4.20;83.10
4826;DHT22;2427;50.934;6.776;2023-04-15T03:38:05;4.10;66.60
4826;DHT22;2427;50.934;6.776;2023-04-15T03:40:31;4.10;99.90
4826;DHT22;2427;50.934;6.776;2023-04-15T03:42:56;4.10;99.40
4826;DHT22;2427;50.934;6.776;2023-04-15T03:45:22;4.10;81.60
4826;DHT22;2427;50.934;6.776;2023-04-15T03:47:47;4.10;95.20
4826;DHT22;2427;50.934;6.776;2023-04-15T03:50:14;4.00;99.90
4826;DHT22;2427;50.934;6.776;2023-04-15T03:52:40;4.10;99.90
4826;DHT22;2427;50.934;6.776;2023-04-15T03:55:05;4.10;99.90
4826;DHT22;2427;50.934;6.776;2023-04-15T03:57:31;4.00;99.90
4826;DHT22;2427;50.934;6.776;2023-04-15T03:59:57;4.00;99.90
4826;DHT22;2427;50.934;6.776;2023-04-15T04:02:23;3.90;99.90
4826;DHT22;2427;50.934;6.776;2023-04-15T04:04:48;3.90;99.90
4826;DHT22;2427;50.934;6.776;2023-04-15T04:07:15;3.90;99.90
4826;DHT22;2427;50.934;6.776;2023-04-15T04:09:41;3.90;99.90
4826;DHT22;2427;50.934;6.776;2023-04-15T04:12:06;3.90;99.90
4826;DHT22;2427;50.934;6.776;2023-04-15T04:14:33;3.80;99.90
4826;DHT22;2427;50.934;6.776;2023-04-15T04:16:58;3.80;99.90
4826;DHT22;2427;50.934;6.776;2023-04-15T04:19:24;3.80;99.90
4826;DHT22;2427;50.934;6.776;2023-04-15T04:21:50;3.80;99.90
4826;DHT22;2427;50.934;6.776;2023-04-15T04:24:16;3.80;1.00
4826;DHT22;2427;50.934;6.776;2023-04-15T04:26:42;3.80;1.00
4826;DHT22;2427;50.934;6.776;2023-04-15T04:29:07;3.80;1.00
4826;DHT22;2427;50.934;6.776;2023-04-15T04:31:33;3.80;1.00
4826;DHT22;2427;50.934;6.776;2023-04-15T04:33:58;3.90;1.00
4826;DHT22;2427;50.934;6.776;2023-04-15T04:36:24;3.90;99.90
4826;DHT22;2427;50.934;6.776;2023-04-15T04:38:50;3.90;99.90
4826;DHT22;2427;50.934;6.776;2023-04-15T04:41:17;3.90;99.90
4826;DHT22;2427;50.934;6.776;2023-04-15T04:43:42;3.90;1.00
4826;DHT22;2427;50.934;6.776;2023-04-15T04:46:08;3.90;1.00
4826;DHT22;2427;50.934;6.776;2023-04-15T04:48:34;3.90;1.00
4826;DHT22;2427;50.934;6.776;2023-04-15T04:51:00;3.90;1.00
4826;DHT22;2427;50.934;6.776;2023-04-15T04:53:26;3.90;1.00
4826;DHT22;2427;50.934;6.776;2023-04-15T04:55:52;4.00;1.00
4826;DHT22;2427;50.934;6.776;2023-04-15T04:58:18;3.90;1.00
4826;DHT22;2427;50.934;6.776;2023-04-15T05:00:43;3.90;1.00
4826;DHT22;2427;50.934;6.776;2023-04-15T05:03:09;4.00;1.00
4826;DHT22;2427;50.934;6.776;2023-04-15T05:05:35;4.00;1.00
4826;DHT22;2427;50.934;6.776;2023-04-15T05:08:02;4.00;1.00
4826;DHT22;2427;50.934;6.776;2023-04-15T05:10:28;4.10;1.00
4826;DHT22;2427;50.934;6.776;2023-04-15T05:12:53;4.10;1.00
4826;DHT22;2427;50.934;6.776;2023-04-15T05:15:19;4.20;1.00
4826;DHT22;2427;50.934;6.776;2023-04-15T05:17:45;4.20;1.00
4826;DHT22;2427;50.934;6.776;2023-04-15T05:20:11;4.30;1.00
4826;DHT22;2427;50.934;6.776;2023-04-15T05:22:37;4.40;99.90
4826;DHT22;2427;50.934;6.776;2023-04-15T05:25:03;4.40;99.90
4826;DHT22;2427;50.934;6.776;2023-04-15T05:27:28;4.50;99.90
4826;DHT22;2427;50.934;6.776;2023-04-15T05:29:54;4.60;99.90
4826;DHT22;2427;50.934;6.776;2023-04-15T05:32:20;4.60;99.90
4826;DHT22;2427;50.934;6.776;2023-04-15T05:34:46;4.70;99.90
4826;DHT22;2427;50.934;6.776;2023-04-15T05:37:12;4.80;92.30
4826;DHT22;2427;50.934;6.776;2023-04-15T05:39:38;4.90;1.00
4826;DHT22;2427;50.934;6.776;2023-04-15T05:42:03;5.00;1.00
4826;DHT22;2427;50.934;6.776;2023-04-15T05:44:30;5.10;1.00
4826;DHT22;2427;50.934;6.776;2023-04-15T05:46:56;5.20;1.00
4826;DHT22;2427;50.934;6.776;2023-04-15T05:49:22;5.40;1.00
4826;DHT22;2427;50.934;6.776;2023-04-15T05:51:48;5.60;99.90
4826;DHT22;2427;50.934;6.776;2023-04-15T05:54:13;5.70;99.90
4826;DHT22;2427;50.934;6.776;2023-04-15T05:56:39;5.90;99.90
4826;DHT22;2427;50.934;6.776;2023-04-15T05:59:04;6.10;99.90
4826;DHT22;2427;50.934;6.776;2023-04-15T06:01:32;6.20;99.90
4826;DHT22;2427;50.934;6.776;2023-04-15T06:03:57;6.40;99.90
4826;DHT22;2427;50.934;6.776;2023-04-15T06:06:23;6.60;67.40
4826;DHT22;2427;50.934;6.776;2023-04-15T06:08:48;7.00;78.70
4826;DHT22;2427;50.934;6.776;2023-04-15T06:11:14;7.50;1.00
4826;DHT22;2427;50.934;6.776;2023-04-15T06:13:39;7.80;1.00
4826;DHT22;2427;50.934;6.776;2023-04-15T06:16:06;7.90;1.00
4826;DHT22;2427;50.934;6.776;2023-04-15T06:18:32;7.90;1.00
4826;DHT22;2427;50.934;6.776;2023-04-15T06:20:57;7.80;1.00
4826;DHT22;2427;50.934;6.776;2023-04-15T06:23:23;7.70;1.00
4826;DHT22;2427;50.934;6.776;2023-04-15T06:25:49;7.70;1.00
4826;DHT22;2427;50.934;6.776;2023-04-15T06:28:14;7.60;1.00
4826;DHT22;2427;50.934;6.776;2023-04-15T06:30:40;7.60;1.00
4826;DHT22;2427;50.934;6.776;2023-04-15T06:33:05;7.60;1.00
4826;DHT22;2427;50.934;6.776;2023-04-15T06:35:31;7.60;1.00
4826;DHT22;2427;50.934;6.776;2023-04-15T06:37:57;7.60;1.00
4826;DHT22;2427;50.934;6.776;2023-04-15T06:40:23;7.60;1.00
4826;DHT22;2427;50.934;6.776;2023-04-15T06:42:48;7.70;1.00
4826;DHT22;2427;50.934;6.776;2023-04-15T06:45:14;7.80;1.00
4826;DHT22;2427;50.934;6.776;2023-04-15T06:47:40;7.80;1.00
4826;DHT22;2427;50.934;6.776;2023-04-15T06:50:06;7.90;1.00
4826;DHT22;2427;50.934;6.776;2023-04-15T06:52:34;8.00;1.00
4826;DHT22;2427;50.934;6.776;2023-04-15T06:55:00;8.10;99.90
4826;DHT22;2427;50.934;6.776;2023-04-15T06:57:26;8.20;99.90
4826;DHT22;2427;50.934;6.776;2023-04-15T06:59:53;8.40;99.90
4826;DHT22;2427;50.934;6.776;2023-04-15T07:02:19;8.60;99.90
4826;DHT22;2427;50.934;6.776;2023-04-15T07:04:45;8.80;99.90
4826;DHT22;2427;50.934;6.776;2023-04-15T07:07:10;9.00;99.90
4826;DHT22;2427;50.934;6.776;2023-04-15T07:09:36;9.10;99.90
4826;DHT22;2427;50.934;6.776;2023-04-15T07:12:02;9.20;99.90
4826;DHT22;2427;50.934;6.776;2023-04-15T07:14:28;9.40;99.90
4826;DHT22;2427;50.934;6.776;2023-04-15T07:16:54;9.40;99.90
4826;DHT22;2427;50.934;6.776;2023-04-15T07:19:20;9.60;99.90
4826;DHT22;2427;50.934;6.776;2023-04-15T07:21:46;9.70;99.90
4826;DHT22;2427;50.934;6.776;2023-04-15T07:24:11;9.80;99.90
4826;DHT22;2427;50.934;6.776;2023-04-15T07:26:41;9.80;99.90
4826;DHT22;2427;50.934;6.776;2023-04-15T07:29:06;9.90;99.90
4826;DHT22;2427;50.934;6.776;2023-04-15T07:31:32;10.00;99.90
4826;DHT22;2427;50.934;6.776;2023-04-15T07:33:58;10.00;99.90
4826;DHT22;2427;50.934;6.776;2023-04-15T07:36:24;10.00;99.90
4826;DHT22;2427;50.934;6.776;2023-04-15T07:38:49;10.10;99.90
4826;DHT22;2427;50.934;6.776;2023-04-15T07:41:15;10.10;99.90
4826;DHT22;2427;50.934;6.776;2023-04-15T07:43:40;10.20;99.90
4826;DHT22;2427;50.934;6.776;2023-04-15T07:46:06;10.20;99.90
4826;DHT22;2427;50.934;6.776;2023-04-15T07:48:31;10.30;99.90
4826;DHT22;2427;50.934;6.776;2023-04-15T07:50:58;10.40;99.90
4826;DHT22;2427;50.934;6.776;2023-04-15T07:53:23;10.60;99.90
4826;DHT22;2427;50.934;6.776;2023-04-15T07:55:49;10.70;99.90
4826;DHT22;2427;50.934;6.776;2023-04-15T07:58:15;10.80;99.90
4826;DHT22;2427;50.934;6.776;2023-04-15T08:00:40;10.90;99.90
4826;DHT22;2427;50.934;6.776;2023-04-15T08:03:06;11.00;99.90
4826;DHT22;2427;50.934;6.776;2023-04-15T08:05:31;11.10;99.90
4826;DHT22;2427;50.934;6.776;2023-04-15T08:07:57;11.20;99.90
4826;DHT22;2427;50.934;6.776;2023-04-15T08:10:23;11.40;99.90
4826;DHT22;2427;50.934;6.776;2023-04-15T08:12:48;11.50;99.90
4826;DHT22;2427;50.934;6.776;2023-04-15T08:15:15;11.70;99.90
4826;DHT22;2427;50.934;6.776;2023-04-15T08:17:41;11.80;99.90
4826;DHT22;2427;50.934;6.776;2023-04-15T08:20:07;11.90;99.90
4826;DHT22;2427;50.934;6.776;2023-04-15T08:22:33;12.00;99.90
4826;DHT22;2427;50.934;6.776;2023-04-15T08:24:58;12.10;99.90
4826;DHT22;2427;50.934;6.776;2023-04-15T08:27:24;12.20;99.90
4826;DHT22;2427;50.934;6.776;2023-04-15T08:29:49;12.20;99.90
4826;DHT22;2427;50.934;6.776;2023-04-15T08:32:15;12.20;99.90
4826;DHT22;2427;50.934;6.776;2023-04-15T08:34:41;12.30;99.90
4826;DHT22;2427;50.934;6.776;2023-04-15T08:37:07;12.40;99.90
4826;DHT22;2427;50.934;6.776;2023-04-15T08:39:32;12.50;99.90
4826;DHT22;2427;50.934;6.776;2023-04-15T08:42:02;12.60;99.90
4826;DHT22;2427;50.934;6.776;2023-04-15T08:44:29;12.60;99.90
4826;DHT22;2427;50.934;6.776;2023-04-15T08:47:02;12.60;99.90
4826;DHT22;2427;50.934;6.776;2023-04-15T08:49:28;12.60;99.90
4826;DHT22;2427;50.934;6.776;2023-04-15T08:51:54;12.60;99.90
4826;DHT22;2427;50.934;6.776;2023-04-15T08:54:22;12.60;99.90
4826;DHT22;2427;50.934;6.776;2023-04-15T08:56:48;12.60;99.90
4826;DHT22;2427;50.934;6.776;2023-04-15T08:59:14;12.80;99.90
4826;DHT22;2427;50.934;6.776;2023-04-15T09:01:41;12.90;99.90
4826;DHT22;2427;50.934;6.776;2023-04-15T09:04:06;13.00;99.90
4826;DHT22;2427;50.934;6.776;2023-04-15T09:06:33;12.90;99.90
4826;DHT22;2427;50.934;6.776;2023-04-15T09:08:58;13.10;99.90
4826;DHT22;2427;50.934;6.776;2023-04-15T09:11:24;13.20;99.90
4826;DHT22;2427;50.934;6.776;2023-04-15T09:13:50;13.20;99.90
4826;DHT22;2427;50.934;6.776;2023-04-15T09:16:16;13.20;99.90
4826;DHT22;2427;50.934;6.776;2023-04-15T09:18:42;13.40;99.90
4826;DHT22;2427;50.934;6.776;2023-04-15T09:21:12;13.50;99.90
4826;DHT22;2427;50.934;6.776;2023-04-15T09:23:40;13.60;99.90
4826;DHT22;2427;50.934;6.776;2023-04-15T09:26:07;13.70;99.90
4826;DHT22;2427;50.934;6.776;2023-04-15T09:28:33;13.80;99.90
4826;DHT22;2427;50.934;6.776;2023-04-15T09:31:05;13.80;99.90
4826;DHT22;2427;50.934;6.776;2023-04-15T09:33:31;13.80;99.90
4826;DHT22;2427;50.934;6.776;2023-04-15T09:38:22;14.00;99.90
4826;DHT22;2427;50.934;6.776;2023-04-15T09:40:48;14.00;99.90
4826;DHT22;2427;50.934;6.776;2023-04-15T09:43:13;14.00;99.90
4826;DHT22;2427;50.934;6.776;2023-04-15T09:45:47;14.00;99.90
4826;DHT22;2427;50.934;6.776;2023-04-15T09:48:23;14.00;99.90
4826;DHT22;2427;50.934;6.776;2023-04-15T09:50:56;14.00;99.90
4826;DHT22;2427;50.934;6.776;2023-04-15T09:53:23;14.20;99.90
4826;DHT22;2427;50.934;6.776;2023-04-15T09:55:57;14.30;99.90
4826;DHT22;2427;50.934;6.776;2023-04-15T09:58:28;14.30;99.90
4826;DHT22;2427;50.934;6.776;2023-04-15T10:00:55;14.10;99.90
4826;DHT22;2427;50.934;6.776;2023-04-15T10:03:25;14.00;99.90
4826;DHT22;2427;50.934;6.776;2023-04-15T10:05:53;14.10;99.90
4826;DHT22;2427;50.934;6.776;2023-04-15T10:08:21;14.30;99.90
4826;DHT22;2427;50.934;6.776;2023-04-15T10:10:48;14.40;99.90
4826;DHT22;2427;50.934;6.776;2023-04-15T10:13:20;14.60;99.90
4826;DHT22;2427;50.934;6.776;2023-04-15T10:15:51;14.60;99.90
4826;DHT22;2427;50.934;6.776;2023-04-15T10:18:20;14.60;99.90
4826;DHT22;2427;50.934;6.776;2023-04-15T10:20:48;14.80;99.90
4826;DHT22;2427;50.934;6.776;2023-04-15T10:23:14;15.00;99.90
4826;DHT22;2427;50.934;6.776;2023-04-15T10:25:41;15.10;99.90
4826;DHT22;2427;50.934;6.776;2023-04-15T10:28:06;15.30;99.90
4826;DHT22;2427;50.934;6.776;2023-04-15T10:30:33;15.30;99.90
4826;DHT22;2427;50.934;6.776;2023-04-15T10:33:02;15.30;99.90
4826;DHT22;2427;50.934;6.776;2023-04-15T10:35:30;15.10;99.90
4826;DHT22;2427;50.934;6.776;2023-04-15T10:37:56;14.80;99.90
4826;DHT22;2427;50.934;6.776;2023-04-15T10:40:29;14.70;99.90
4826;DHT22;2427;50.934;6.776;2023-04-15T10:43:00;14.70;99.90
4826;DHT22;2427;50.934;6.776;2023-04-15T10:45:36;14.60;99.90
4826;DHT22;2427;50.934;6.776;2023-04-15T10:48:04;14.50;99.90
4826;DHT22;2427;50.934;6.776;2023-04-15T10:50:31;14.40;99.90
4826;DHT22;2427;50.934;6.776;2023-04-15T10:52:58;14.30;99.90
4826;DHT22;2427;50.934;6.776;2023-04-15T10:55:25;14.30;99.90
4826;DHT22;2427;50.934;6.776;2023-04-15T10:57:58;14.50;99.90
4826;DHT22;2427;50.934;6.776;2023-04-15T11:00:25;14.60;99.90
4826;DHT22;2427;50.934;6.776;2023-04-15T11:05:19;14.80;99.90
4826;DHT22;2427;50.934;6.776;2023-04-15T11:07:49;14.90;99.90
4826;DHT22;2427;50.934;6.776;2023-04-15T11:12:43;15.10;99.90
4826;DHT22;2427;50.934;6.776;2023-04-15T11:17:55;15.20;99.90
4826;DHT22;2427;50.934;6.776;2023-04-15T11:20:22;15.40;99.90
4826;DHT22;2427;50.934;6.776;2023-04-15T11:22:52;15.50;99.90
4826;DHT22;2427;50.934;6.776;2023-04-15T11:25:28;15.60;99.90
4826;DHT22;2427;50.934;6.776;2023-04-15T11:27:55;15.40;99.90
4826;DHT22;2427;50.934;6.776;2023-04-15T11:30:22;15.20;99.90
4826;DHT22;2427;50.934;6.776;2023-04-15T11:32:54;15.40;99.90
4826;DHT22;2427;50.934;6.776;2023-04-15T11:35:21;15.40;99.90
4826;DHT22;2427;50.934;6.776;2023-04-15T11:37:48;15.50;99.90
4826;DHT22;2427;50.934;6.776;2023-04-15T11:40:15;15.60;99.90
4826;DHT22;2427;50.934;6.776;2023-04-15T11:42:43;15.50;99.90
4826;DHT22;2427;50.934;6.776;2023-04-15T11:45:10;15.70;99.90
4826;DHT22;2427;50.934;6.776;2023-04-15T11:47:39;15.90;99.90
4826;DHT22;2427;50.934;6.776;2023-04-15T11:50:17;15.90;99.90
4826;DHT22;2427;50.934;6.776;2023-04-15T11:53:00;15.90;99.90
4826;DHT22;2427;50.934;6.776;2023-04-15T11:55:26;15.90;99.90
4826;DHT22;2427;50.934;6.776;2023-04-15T12:00:32;15.40;99.90
4826;DHT22;2427;50.934;6.776;2023-04-15T12:03:27;15.30;99.90
4826;DHT22;2427;50.934;6.776;2023-04-15T12:08:58;14.70;99.90
4826;DHT22;2427;50.934;6.776;2023-04-15T12:11:44;14.50;99.90
4826;DHT22;2427;50.934;6.776;2023-04-15T12:14:18;14.30;99.90
4826;DHT22;2427;50.934;6.776;2023-04-15T12:16:46;14.20;99.90
4826;DHT22;2427;50.934;6.776;2023-04-15T12:19:15;14.00;99.90
4826;DHT22;2427;50.934;6.776;2023-04-15T12:21:44;14.00;99.90
4826;DHT22;2427;50.934;6.776;2023-04-15T12:24:10;14.00;99.90
4826;DHT22;2427;50.934;6.776;2023-04-15T12:26:59;14.10;99.90
4826;DHT22;2427;50.934;6.776;2023-04-15T12:29:27;14.00;99.90
4826;DHT22;2427;50.934;6.776;2023-04-15T12:31:55;14.00;99.90
4826;DHT22;2427;50.934;6.776;2023-04-15T12:34:33;13.90;99.90
4826;DHT22;2427;50.934;6.776;2023-04-15T12:37:00;14.00;99.90
4826;DHT22;2427;50.934;6.776;2023-04-15T12:39:29;14.00;99.90
4826;DHT22;2427;50.934;6.776;2023-04-15T12:41:55;13.90;99.90
4826;DHT22;2427;50.934;6.776;2023-04-15T12:44:24;13.70;99.90
4826;DHT22;2427;50.934;6.776;2023-04-15T12:46:50;13.70;99.90
4826;DHT22;2427;50.934;6.776;2023-04-15T12:49:18;13.70;99.90
4826;DHT22;2427;50.934;6.776;2023-04-15T12:51:51;13.50;99.90
4826;DHT22;2427;50.934;6.776;2023-04-15T12:54:18;13.50;99.90
4826;DHT22;2427;50.934;6.776;2023-04-15T12:56:44;13.40;99.90
4826;DHT22;2427;50.934;6.776;2023-04-15T12:59:11;13.40;99.90
4826;DHT22;2427;50.934;6.776;2023-04-15T13:01:37;13.40;99.90
4826;DHT22;2427;50.934;6.776;2023-04-15T13:04:03;13.30;99.90
4826;DHT22;2427;50.934;6.776;2023-04-15T13:06:29;13.10;99.90
4826;DHT22;2427;50.934;6.776;2023-04-15T13:08:56;13.10;99.90
4826;DHT22;2427;50.934;6.776;2023-04-15T13:11:23;13.10;99.90
4826;DHT22;2427;50.934;6.776;2023-04-15T13:13:49;13.00;99.90
4826;DHT22;2427;50.934;6.776;2023-04-15T13:16:16;12.80;99.90
4826;DHT22;2427;50.934;6.776;2023-04-15T13:18:42;12.80;99.90
4826;DHT22;2427;50.934;6.776;2023-04-15T13:21:07;12.70;99.90
4826;DHT22;2427;50.934;6.776;2023-04-15T13:23:35;12.80;99.90
4826;DHT22;2427;50.934;6.776;2023-04-15T13:26:00;12.80;99.90
4826;DHT22;2427;50.934;6.776;2023-04-15T13:28:26;12.70;99.90
4826;DHT22;2427;50.934;6.776;2023-04-15T13:30:51;12.80;99.90
4826;DHT22;2427;50.934;6.776;2023-04-15T13:33:17;12.90;99.90
4826;DHT22;2427;50.934;6.776;2023-04-15T13:35:43;12.70;99.90
4826;DHT22;2427;50.934;6.776;2023-04-15T13:38:08;12.60;99.90
4826;DHT22;2427;50.934;6.776;2023-04-15T13:40:34;12.50;99.90
4826;DHT22;2427;50.934;6.776;2023-04-15T13:42:59;12.50;99.90
4826;DHT22;2427;50.934;6.776;2023-04-15T13:45:26;12.40;99.90
4826;DHT22;2427;50.934;6.776;2023-04-15T13:47:52;12.30;99.90
4826;DHT22;2427;50.934;6.776;2023-04-15T13:50:17;12.30;99.90
4826;DHT22;2427;50.934;6.776;2023-04-15T13:52:43;12.40;99.90
4826;DHT22;2427;50.934;6.776;2023-04-15T13:55:09;12.30;99.90
4826;DHT22;2427;50.934;6.776;2023-04-15T13:57:35;12.40;99.90
4826;DHT22;2427;50.934;6.776;2023-04-15T14:00:02;12.30;99.90
4826;DHT22;2427;50.934;6.776;2023-04-15T14:02:28;12.30;99.90
4826;DHT22;2427;50.934;6.776;2023-04-15T14:04:54;12.10;99.90
4826;DHT22;2427;50.934;6.776;2023-04-15T14:07:19;12.10;99.90
4826;DHT22;2427;50.934;6.776;2023-04-15T14:09:45;12.10;99.90
4826;DHT22;2427;50.934;6.776;2023-04-15T14:12:12;12.10;99.90
4826;DHT22;2427;50.934;6.776;2023-04-15T14:14:38;12.10;99.90
4826;DHT22;2427;50.934;6.776;2023-04-15T14:17:03;12.10;99.90
4826;DHT22;2427;50.934;6.776;2023-04-15T14:19:30;12.00;99.90
4826;DHT22;2427;50.934;6.776;2023-04-15T14:21:56;12.00;99.90
4826;DHT22;2427;50.934;6.776;2023-04-15T14:24:22;12.00;99.90
4826;DHT22;2427;50.934;6.776;2023-04-15T14:26:47;12.00;99.90
4826;DHT22;2427;50.934;6.776;2023-04-15T14:29:13;11.90;99.90
4826;DHT22;2427;50.934;6.776;2023-04-15T14:31:38;11.90;99.90
4826;DHT22;2427;50.934;6.776;2023-04-15T14:34:04;11.90;99.90
4826;DHT22;2427;50.934;6.776;2023-04-15T14:36:30;11.90;99.90
4826;DHT22;2427;50.934;6.776;2023-04-15T14:38:56;11.90;99.90
4826;DHT22;2427;50.934;6.776;2023-04-15T14:41:22;12.00;99.90
4826;DHT22;2427;50.934;6.776;2023-04-15T14:43:48;12.00;99.90
4826;DHT22;2427;50.934;6.776;2023-04-15T14:46:14;12.10;99.90
4826;DHT22;2427;50.934;6.776;2023-04-15T14:48:40;12.10;99.90
4826;DHT22;2427;50.934;6.776;2023-04-15T14:51:05;12.20;99.90
4826;DHT22;2427;50.934;6.776;2023-04-15T14:53:31;12.30;99.90
4826;DHT22;2427;50.934;6.776;2023-04-15T14:55:57;12.30;99.90
4826;DHT22;2427;50.934;6.776;2023-04-15T14:58:23;12.30;99.90
4826;DHT22;2427;50.934;6.776;2023-04-15T15:00:48;12.30;99.90
4826;DHT22;2427;50.934;6.776;2023-04-15T15:03:14;12.30;99.90
4826;DHT22;2427;50.934;6.776;2023-04-15T15:05:40;12.30;99.90
4826;DHT22;2427;50.934;6.776;2023-04-15T15:08:07;12.40;99.90
4826;DHT22;2427;50.934;6.776;2023-04-15T15:10:34;12.30;99.90
4826;DHT22;2427;50.934;6.776;2023-04-15T15:13:01;12.20;99.90
4826;DHT22;2427;50.934;6.776;2023-04-15T15:15:27;12.20;99.90
4826;DHT22;2427;50.934;6.776;2023-04-15T15:17:53;12.20;99.90
4826;DHT22;2427;50.934;6.776;2023-04-15T15:20:18;12.10;99.90
4826;DHT22;2427;50.934;6.776;2023-04-15T15:22:44;12.10;99.90
4826;DHT22;2427;50.934;6.776;2023-04-15T15:25:10;12.00;99.90
4826;DHT22;2427;50.934;6.776;2023-04-15T15:27:35;11.80;99.90
4826;DHT22;2427;50.934;6.776;2023-04-15T15:30:02;11.70;99.90
4826;DHT22;2427;50.934;6.776;2023-04-15T15:32:27;11.70;99.90
4826;DHT22;2427;50.934;6.776;2023-04-15T15:34:53;11.70;99.90
4826;DHT22;2427;50.934;6.776;2023-04-15T15:37:19;11.70;99.90
4826;DHT22;2427;50.934;6.776;2023-04-15T15:39:45;11.70;99.90
4826;DHT22;2427;50.934;6.776;2023-04-15T15:42:10;11.80;99.90
4826;DHT22;2427;50.934;6.776;2023-04-15T15:44:36;11.80;99.90
4826;DHT22;2427;50.934;6.776;2023-04-15T15:47:03;11.80;99.90
4826;DHT22;2427;50.934;6.776;2023-04-15T15:49:29;11.80;99.90
4826;DHT22;2427;50.934;6.776;2023-04-15T15:51:55;11.80;99.90
4826;DHT22;2427;50.934;6.776;2023-04-15T15:54:21;11.80;99.90
4826;DHT22;2427;50.934;6.776;2023-04-15T15:56:46;11.80;99.90
4826;DHT22;2427;50.934;6.776;2023-04-15T15:59:12;11.60;99.90
4826;DHT22;2427;50.934;6.776;2023-04-15T16:01:38;11.60;99.90
4826;DHT22;2427;50.934;6.776;2023-04-15T16:04:03;11.50;99.90
4826;DHT22;2427;50.934;6.776;2023-04-15T16:06:29;11.50;99.90
4826;DHT22;2427;50.934;6.776;2023-04-15T16:08:56;11.50;99.90
4826;DHT22;2427;50.934;6.776;2023-04-15T16:11:22;11.40;99.90
4826;DHT22;2427;50.934;6.776;2023-04-15T16:13:47;11.40;99.90
4826;DHT22;2427;50.934;6.776;2023-04-15T16:16:13;11.40;99.90
4826;DHT22;2427;50.934;6.776;2023-04-15T16:18:38;11.20;99.90
4826;DHT22;2427;50.934;6.776;2023-04-15T16:21:05;11.10;99.90
4826;DHT22;2427;50.934;6.776;2023-04-15T16:23:30;11.10;99.90
4826;DHT22;2427;50.934;6.776;2023-04-15T16:25:56;11.10;1.00
4826;DHT22;2427;50.934;6.776;2023-04-15T16:28:22;11.00;1.00
4826;DHT22;2427;50.934;6.776;2023-04-15T16:30:48;11.00;1.00
4826;DHT22;2427;50.934;6.776;2023-04-15T16:33:13;10.90;1.00